KLNC

Details ICAO KLNC
Name LANCASTER
Region United States
Timezone America/Chicago (UTC-6.0)
Plans Departing 2
Arriving 7
Stats Elevation 500 ft / 152 m (AMSL)
Location 32.577603° -96.717508°
Runways 1
Magnetic Variation 3.244° E
Sunrise 2017-12-13 13:21:39 UTC / 2017-12-13 07:21:39 Local
Sunset 2017-12-13 23:23:34 UTC / 2017-12-13 17:23:34 Local
Advertisement - Login to hide

Runways

ID Width Length Bearing (true) Bearing (mag) Surface Threshold Offset Overrun Length
13 100 ft / 30 m 6,506 ft / 1,983 m 140.45° 137.21° Asphalt 0 ft / 0 m 0 ft / 0 m
31 100 ft / 30 m 6,506 ft / 1,983 m 320.45° 317.21° Asphalt 0 ft / 0 m 0 ft / 0 m

Map

Weather


0- 5 10 15 20 25 30 35+ Temperature / ° C

Clouds and Precipitation
Forecast for 2017-12-13 12:00 UTC. Updated 16 minutes ago

Ground ~20,000 ft ~40,000 ft Winds

METAR

KLNC 130735Z AUTO 00000KT 10SM CLR 01/M03 A3016 RMK AO2 T00081035

TAF

Not found

Frequencies

Recorded 118.97 MHz AWOS 3
Approach 125.20 MHz RGNL APP/DEP
Unicom 122.70 MHz CTAF/UNICOM
Warning: Do not use this data for real-world aviation or navigation. No guarantee of current accuracy is given.